Time;durP1;ratioP1;P1;durP2;ratioP2;P2;SDS_P1;SDS_P2;PMS_P1;PMS_P2;Temp;Humidity;BMP_temperature;BMP_pressure;BME280_temperature;BME280_humidity;BME280_pressure;Samples;Min_cycle;Max_cycle;Signal;HPM_P1;HPM_P2
2022/12/17 13:06:51;;;;;;;31.98;17.52;;;0.50;1.00;;;;;;5049834;28;20224;-72
2022/12/17 13:09:51;;;;;;;33.15;16.60;;;1.20;1.00;;;;;;5052590;28;20156;-82
2022/12/17 13:13:06;;;;;;;34.13;16.83;;;1.70;1.00;;;;;;5054752;28;20207;-86
2022/12/17 13:16:27;;;;;;;34.45;16.83;;;1.90;1.00;;;;;;5054655;28;20175;-85
2022/12/17 13:22:29;;;;;;;36.40;17.30;;;1.20;1.00;;;;;;5013086;28;20235;-85
2022/12/17 13:25:21;;;;;;;31.35;16.65;;;0.90;1.00;;;;;;5028028;28;20180;-81
2022/12/17 13:27:48;;;;;;;37.25;18.85;;;0.70;1.00;;;;;;5022164;28;20200;-80
2022/12/17 13:30:16;;;;;;;36.50;18.52;;;0.30;1.00;;;;;;5022718;28;20181;-80
2022/12/17 13:33:24;;;;;;;37.83;18.90;;;0.20;1.00;;;;;;5025128;28;20276;-80
2022/12/17 13:36:19;;;;;;;41.35;18.77;;;0.10;1.00;;;;;;5014653;28;20611;-80
2022/12/17 13:39:07;;;;;;;40.60;19.75;;;-0.20;1.00;;;;;;5026168;28;20187;-80
2022/12/17 13:41:43;;;;;;;45.67;20.77;;;-0.30;1.00;;;;;;5031672;28;20184;-80
2022/12/17 13:44:42;;;;;;;40.42;19.75;;;-0.40;1.00;;;;;;5008110;28;20224;-80
2022/12/17 13:47:27;;;;;;;40.95;19.23;;;-0.70;1.00;;;;;;5009754;28;20259;-80
2022/12/17 13:50:36;;;;;;;42.40;19.80;;;-0.80;1.00;;;;;;5016907;28;20196;-80
2022/12/17 13:53:19;;;;;;;43.47;20.15;;;-0.80;1.00;;;;;;5014324;28;20173;-80
2022/12/17 13:55:55;;;;;;;42.95;20.65;;;-1.00;1.00;;;;;;5049637;28;20691;-82
2022/12/17 13:58:52;;;;;;;45.80;20.45;;;-1.00;1.00;;;;;;5055907;28;20270;-81
2022/12/17 14:01:44;;;;;;;44.20;20.52;;;-1.10;1.00;;;;;;5059065;28;20199;-83
2022/12/17 14:04:21;;;;;;;42.03;19.95;;;-1.10;1.00;;;;;;5055632;28;20262;-71
2022/12/17 14:06:47;;;;;;;44.35;21.27;;;-1.10;1.00;;;;;;5044122;28;20814;-71
2022/12/17 14:09:17;;;;;;;51.03;22.00;;;-1.10;1.00;;;;;;5058285;28;20183;-72
2022/12/17 14:14:58;;;;;;;47.40;20.60;;;-1.20;1.00;;;;;;5039871;28;20665;-73
2022/12/17 14:17:25;;;;;;;44.47;21.05;;;-1.30;1.00;;;;;;4992656;28;20243;-73
2022/12/17 14:20:18;;;;;;;45.90;19.98;;;-1.40;1.00;;;;;;4992637;28;20208;-73
2022/12/17 14:22:52;;;;;;;43.78;19.70;;;-1.40;1.00;;;;;;4978091;28;20177;-72
2022/12/17 14:25:23;;;;;;;45.90;20.65;;;-1.40;1.00;;;;;;4990448;28;20190;-72
2022/12/17 14:27:54;;;;;;;43.85;21.30;;;-1.50;1.00;;;;;;4991276;28;20206;-72
2022/12/17 14:30:37;;;;;;;44.80;21.38;;;-1.40;1.00;;;;;;4990641;28;20244;-71
2022/12/17 14:33:22;;;;;;;42.00;20.65;;;-1.40;1.00;;;;;;4993334;28;20198;-71
2022/12/17 14:35:52;;;;;;;43.05;20.05;;;-1.50;1.00;;;;;;4981196;28;20186;-71
2022/12/17 14:38:18;;;;;;;44.75;19.55;;;-1.50;1.00;;;;;;4989251;28;20196;-71
2022/12/17 14:40:44;;;;;;;46.30;20.60;;;-1.60;1.00;;;;;;4992543;28;20276;-72
2022/12/17 14:43:12;;;;;;;44.07;20.37;;;-1.70;1.00;;;;;;4996070;28;20205;-71
2022/12/17 14:46:19;;;;;;;45.55;20.83;;;-1.80;1.00;;;;;;4984303;28;20182;-70
2022/12/17 14:48:59;;;;;;;42.88;19.30;;;-1.90;1.00;;;;;;4990792;28;20201;-70
2022/12/17 14:51:32;;;;;;;39.22;19.80;;;-2.00;1.00;;;;;;4994394;28;20200;-71
2022/12/17 14:54:15;;;;;;;43.25;19.35;;;-2.00;1.00;;;;;;5021851;28;20233;-70
2022/12/17 14:56:42;;;;;;;38.83;19.83;;;-2.20;1.00;;;;;;5052431;28;20237;-70
2022/12/17 14:59:22;;;;;;;42.13;20.70;;;-2.20;1.00;;;;;;5052960;28;20772;-70
2022/12/17 15:01:48;;;;;;;44.97;20.58;;;-2.30;1.00;;;;;;5045438;28;20183;-70
2022/12/17 15:04:16;;;;;;;46.20;20.77;;;-2.30;1.00;;;;;;5053634;28;20796;-70
2022/12/17 15:06:41;;;;;;;48.55;20.08;;;-2.40;1.00;;;;;;5055457;28;20416;-70
2022/12/17 15:09:10;;;;;;;40.90;19.47;;;-2.50;1.00;;;;;;5055377;28;20184;-70
2022/12/17 15:11:36;;;;;;;41.28;20.25;;;-2.50;1.00;;;;;;5054319;28;20422;-70
2022/12/17 15:14:02;;;;;;;41.27;19.27;;;-2.50;1.00;;;;;;5055730;28;20820;-70
2022/12/17 15:16:27;;;;;;;46.10;20.17;;;-2.50;1.00;;;;;;5054011;28;20183;-70
2022/12/17 15:18:53;;;;;;;44.67;20.57;;;-2.60;1.00;;;;;;5052000;28;20580;-70
2022/12/17 15:21:19;;;;;;;43.80;21.00;;;-2.70;1.00;;;;;;5042376;28;20195;-70
2022/12/17 15:23:46;;;;;;;43.07;19.60;;;-2.70;1.00;;;;;;5054233;28;20530;-70
2022/12/17 15:26:16;;;;;;;44.38;19.52;;;-2.70;1.00;;;;;;5066715;28;20769;-70
2022/12/17 15:32:31;;;;;;;48.20;23.00;;;-2.90;1.00;;;;;;5072969;28;20648;-87
2022/12/17 15:35:01;;;;;;;50.25;22.73;;;-2.90;1.00;;;;;;5043590;28;20176;-88
2022/12/17 15:37:37;;;;;;;47.38;22.40;;;-2.90;1.00;;;;;;5054756;28;20179;-87
2022/12/17 15:43:43;;;;;;;47.50;22.73;;;-2.90;1.00;;;;;;5049276;28;20210;-88
2022/12/17 15:49:31;;;;;;;45.78;21.08;;;-3.00;1.00;;;;;;5059391;28;20195;-85
2022/12/17 15:52:25;;;;;;;44.20;21.80;;;-2.90;1.00;;;;;;5054042;28;20176;-88
2022/12/17 15:55:25;;;;;;;45.13;22.00;;;-3.00;1.00;;;;;;5057806;28;20179;-88
2022/12/17 15:57:50;;;;;;;47.22;21.42;;;-3.00;1.00;;;;;;5046045;28;20190;-76
2022/12/17 16:00:25;;;;;;;45.53;21.50;;;-3.00;1.00;;;;;;5052556;28;20200;-77
2022/12/17 16:02:55;;;;;;;44.72;21.65;;;-3.00;1.00;;;;;;5054139;28;20649;-77
2022/12/17 16:05:22;;;;;;;47.10;20.50;;;-3.00;1.00;;;;;;5064558;28;20263;-72
2022/12/17 16:07:48;;;;;;;48.33;20.80;;;-3.10;1.00;;;;;;5061066;28;20184;-76
2022/12/17 16:10:19;;;;;;;47.38;19.92;;;-3.10;1.00;;;;;;5065265;28;20180;-76
2022/12/17 16:16:07;;;;;;;48.22;22.50;;;-3.10;1.00;;;;;;5053958;28;20222;-88
2022/12/17 16:18:37;;;;;;;48.65;21.75;;;-3.10;1.00;;;;;;5053580;28;20191;-88
2022/12/17 16:24:37;;;;;;;47.97;21.25;;;-3.10;1.00;;;;;;5058589;28;20685;-88
2022/12/17 16:27:07;;;;;;;45.85;20.80;;;-3.10;1.00;;;;;;5064697;28;20174;-77
2022/12/17 16:29:46;;;;;;;46.15;19.85;;;-3.10;1.00;;;;;;5042519;28;20223;-76
2022/12/17 16:32:19;;;;;;;42.33;20.83;;;-3.20;1.00;;;;;;5053569;28;20171;-76
2022/12/17 16:34:49;;;;;;;44.17;20.23;;;-3.30;1.00;;;;;;5050110;28;20268;-76
2022/12/17 16:37:43;;;;;;;47.25;21.08;;;-3.30;1.00;;;;;;5068757;28;20626;-76
2022/12/17 16:40:09;;;;;;;47.83;20.65;;;-3.40;1.00;;;;;;5032990;28;20192;-76
2022/12/17 16:43:07;;;;;;;51.47;22.58;;;-3.50;1.00;;;;;;5067863;28;20179;-88
2022/12/17 16:52:16;;;;;;;53.90;23.35;;;-3.40;1.00;;;;;;5060069;28;20197;-88
2022/12/17 16:54:42;;;;;;;47.60;22.48;;;-3.40;1.00;;;;;;5054879;28;20184;-88
2022/12/17 16:57:31;;;;;;;52.43;22.07;;;-3.50;1.00;;;;;;5072545;28;20266;-88
2022/12/17 16:59:57;;;;;;;47.03;21.92;;;-3.50;1.00;;;;;;5072337;28;20244;-76
2022/12/17 17:02:25;;;;;;;51.73;22.47;;;-3.50;1.00;;;;;;5072172;28;20163;-76
2022/12/17 17:05:01;;;;;;;49.33;22.85;;;-3.50;1.00;;;;;;5071682;28;20812;-77
2022/12/17 17:07:27;;;;;;;50.08;22.90;;;-3.50;1.00;;;;;;5063799;28;20204;-77
2022/12/17 17:10:07;;;;;;;51.87;23.70;;;-3.50;1.00;;;;;;5060001;28;20175;-76
2022/12/17 17:12:37;;;;;;;53.45;23.98;;;-3.50;1.00;;;;;;5052404;28;20180;-76
2022/12/17 17:15:07;;;;;;;54.50;25.00;;;-3.50;1.00;;;;;;5045743;28;20536;-76
2022/12/17 17:17:43;;;;;;;48.92;22.52;;;-3.50;1.00;;;;;;5061488;28;20270;-77
2022/12/17 17:20:31;;;;;;;47.22;21.67;;;-3.50;1.00;;;;;;5060218;28;20206;-76
2022/12/17 17:23:13;;;;;;;54.15;22.48;;;-3.50;1.00;;;;;;5053558;28;20226;-76
2022/12/17 17:29:02;;;;;;;49.70;22.63;;;-3.60;1.00;;;;;;5047497;28;20195;-76
2022/12/17 17:31:28;;;;;;;53.22;23.20;;;-3.60;1.00;;;;;;5065043;28;20180;-76
2022/12/17 17:34:12;;;;;;;51.45;22.90;;;-3.60;1.00;;;;;;5058088;28;20225;-76
2022/12/17 17:36:39;;;;;;;58.35;23.08;;;-3.60;1.00;;;;;;5052511;28;20178;-77
2022/12/17 17:39:26;;;;;;;50.13;22.30;;;-3.60;1.00;;;;;;5059885;28;20209;-76
2022/12/17 17:41:55;;;;;;;52.42;22.13;;;-3.60;1.00;;;;;;5060704;28;20640;-76
2022/12/17 17:44:25;;;;;;;48.65;21.55;;;-3.50;1.00;;;;;;5059556;28;20547;-77
2022/12/17 17:46:51;;;;;;;50.17;22.00;;;-3.50;1.00;;;;;;5059818;28;20183;-76
2022/12/17 17:49:37;;;;;;;43.93;20.00;;;-3.60;1.00;;;;;;5066144;28;20313;-76
2022/12/17 17:52:07;;;;;;;49.22;22.73;;;-3.60;1.00;;;;;;5066293;28;20186;-76
2022/12/17 17:54:33;;;;;;;53.03;23.02;;;-3.60;1.00;;;;;;5052184;28;20180;-76
2022/12/17 17:57:08;;;;;;;52.27;22.90;;;-3.70;1.00;;;;;;5069811;28;20514;-76
2022/12/17 18:03:07;;;;;;;51.45;22.98;;;-3.80;1.00;;;;;;5069474;28;20236;-88
2022/12/17 18:06:08;;;;;;;49.80;21.13;;;-3.80;1.00;;;;;;5069359;28;20226;-88
2022/12/17 18:09:08;;;;;;;49.78;22.83;;;-3.80;1.00;;;;;;5055722;28;20217;-88
2022/12/17 18:14:55;;;;;;;60.40;25.05;;;-3.80;1.00;;;;;;5064065;28;20194;-88
2022/12/17 18:17:31;;;;;;;55.17;24.13;;;-3.80;1.00;;;;;;5075038;28;20191;-88
2022/12/17 18:23:19;;;;;;;56.03;24.63;;;-4.00;1.00;;;;;;5056631;28;20175;-88
2022/12/17 18:29:27;;;;;;;48.50;21.90;;;-4.00;1.00;;;;;;5076725;28;20243;-88
2022/12/17 18:32:07;;;;;;;46.72;22.02;;;-4.00;1.00;;;;;;5070945;28;20172;-88
2022/12/17 18:35:19;;;;;;;46.70;22.38;;;-4.10;1.00;;;;;;5069729;28;20186;-88
2022/12/17 18:38:07;;;;;;;48.78;21.90;;;-4.10;1.00;;;;;;5056657;28;20163;-88
2022/12/17 18:40:37;;;;;;;44.47;19.85;;;-4.10;1.00;;;;;;5056754;28;20195;-88
2022/12/17 18:43:23;;;;;;;47.35;21.00;;;-4.10;1.00;;;;;;5054403;28;20517;-88
2022/12/17 18:45:51;;;;;;;47.25;21.92;;;-4.10;1.00;;;;;;5055819;28;20244;-88
2022/12/17 18:48:37;;;;;;;44.17;20.20;;;-4.20;1.00;;;;;;5056284;28;20650;-88
2022/12/17 18:51:39;;;;;;;44.67;20.30;;;-4.20;1.00;;;;;;5054697;28;20183;-88
2022/12/17 18:57:37;;;;;;;49.17;22.30;;;-4.20;1.00;;;;;;5053579;28;20686;-88
2022/12/17 19:00:08;;;;;;;47.20;20.83;;;-4.30;1.00;;;;;;5066038;28;20230;-88
2022/12/17 19:02:37;;;;;;;46.20;19.75;;;-4.40;1.00;;;;;;5066189;28;20214;-88
2022/12/17 19:05:38;;;;;;;43.78;20.90;;;-4.50;1.00;;;;;;5074903;28;20519;-88
2022/12/17 19:08:19;;;;;;;42.20;19.63;;;-4.50;1.00;;;;;;5074753;28;20159;-88
2022/12/17 19:11:05;;;;;;;47.08;21.40;;;-4.50;1.00;;;;;;5070329;28;20547;-88
2022/12/17 19:13:34;;;;;;;43.38;20.92;;;-4.50;1.00;;;;;;5074506;28;20173;-78
2022/12/17 19:16:28;;;;;;;46.60;19.73;;;-4.50;1.00;;;;;;5075870;28;20170;-88
2022/12/17 19:19:01;;;;;;;44.30;19.98;;;-4.40;1.00;;;;;;5075752;28;20214;-88
2022/12/17 19:21:37;;;;;;;41.90;18.98;;;-4.40;1.00;;;;;;5062507;28;20192;-88
2022/12/17 19:24:37;;;;;;;48.22;19.67;;;-4.40;1.00;;;;;;5055626;28;20162;-87
2022/12/17 19:27:03;;;;;;;45.75;20.85;;;-4.40;1.00;;;;;;5074567;28;20175;-88
2022/12/17 19:29:37;;;;;;;45.27;20.10;;;-4.50;1.00;;;;;;5075721;28;20162;-88
2022/12/17 19:32:08;;;;;;;44.55;20.15;;;-4.50;1.00;;;;;;5049152;28;20397;-88
2022/12/17 19:35:07;;;;;;;46.75;21.60;;;-4.50;1.00;;;;;;5054700;28;20252;-88
2022/12/17 19:37:37;;;;;;;45.45;20.65;;;-4.50;1.00;;;;;;5066932;28;20630;-88
2022/12/17 19:40:37;;;;;;;46.33;20.52;;;-4.50;1.00;;;;;;5062174;28;20683;-88
2022/12/17 19:46:33;;;;;;;43.47;21.05;;;-4.70;1.00;;;;;;5067903;28;20222;-76
2022/12/17 19:49:03;;;;;;;48.05;22.40;;;-4.70;1.00;;;;;;5066716;28;20253;-76
2022/12/17 19:51:30;;;;;;;44.03;19.27;;;-4.70;1.00;;;;;;5058012;28;20183;-76
2022/12/17 19:54:01;;;;;;;46.63;20.00;;;-4.70;1.00;;;;;;5064473;28;20180;-77
2022/12/17 19:56:37;;;;;;;43.72;20.92;;;-4.70;1.00;;;;;;5053903;28;20554;-76
2022/12/17 19:59:13;;;;;;;42.80;19.05;;;-4.80;1.00;;;;;;5061060;28;20179;-79
2022/12/17 20:01:43;;;;;;;42.65;20.08;;;-4.80;1.00;;;;;;5045278;28;20195;-76
2022/12/17 20:04:25;;;;;;;42.85;19.73;;;-4.90;1.00;;;;;;5074223;28;20151;-77
2022/12/17 20:06:51;;;;;;;43.78;19.52;;;-4.80;1.00;;;;;;5072734;28;20178;-78
2022/12/17 20:09:17;;;;;;;41.50;18.60;;;-4.90;1.00;;;;;;5071014;28;20176;-76
2022/12/17 20:11:46;;;;;;;43.00;18.87;;;-4.80;1.00;;;;;;5063767;28;20417;-76
2022/12/17 20:14:20;;;;;;;42.55;20.15;;;-4.90;1.00;;;;;;5064058;28;20818;-76
2022/12/17 20:17:37;;;;;;;37.63;19.05;;;-4.80;1.00;;;;;;5053232;28;20657;-87
2022/12/17 20:20:37;;;;;;;40.00;19.90;;;-4.80;1.00;;;;;;5054352;28;20226;-88
2022/12/17 20:23:07;;;;;;;40.75;20.35;;;-4.90;1.00;;;;;;5064324;28;20167;-88
2022/12/17 20:29:08;;;;;;;47.53;22.00;;;-4.80;1.00;;;;;;5072404;28;20181;-88
2022/12/17 20:31:38;;;;;;;48.83;22.40;;;-4.80;1.00;;;;;;5068482;28;20534;-76
2022/12/17 20:34:06;;;;;;;43.60;20.80;;;-4.80;1.00;;;;;;5033915;28;20588;-77
2022/12/17 20:36:39;;;;;;;45.50;20.20;;;-4.70;1.00;;;;;;5061744;28;20221;-76
2022/12/17 20:39:06;;;;;;;41.15;19.48;;;-4.70;1.00;;;;;;5073902;28;20167;-76
2022/12/17 20:41:39;;;;;;;47.47;21.25;;;-4.70;1.00;;;;;;5057559;28;20198;-76
2022/12/17 20:44:11;;;;;;;42.30;19.38;;;-4.70;1.00;;;;;;5064137;28;20168;-76
2022/12/17 20:50:37;;;;;;;43.88;19.60;;;-4.70;1.00;;;;;;5064147;28;20191;-88
2022/12/17 20:53:38;;;;;;;44.35;20.60;;;-4.70;1.00;;;;;;5053280;28;20639;-88
2022/12/17 20:56:10;;;;;;;42.55;20.73;;;-4.80;1.00;;;;;;5073994;28;20159;-88
2022/12/17 20:59:08;;;;;;;44.42;20.10;;;-4.80;1.00;;;;;;5073822;28;20661;-88
2022/12/17 21:01:37;;;;;;;44.95;20.63;;;-4.80;1.00;;;;;;5060157;28;20244;-76
2022/12/17 21:04:14;;;;;;;42.42;19.52;;;-4.90;1.00;;;;;;5053223;28;20259;-76
2022/12/17 21:07:01;;;;;;;44.78;20.45;;;-4.90;1.00;;;;;;5040578;28;20187;-76
2022/12/17 21:09:37;;;;;;;44.95;20.77;;;-5.00;1.00;;;;;;5052911;28;20186;-76
2022/12/17 21:12:13;;;;;;;43.45;20.05;;;-5.00;1.00;;;;;;5049204;28;20175;-76
2022/12/17 21:14:52;;;;;;;43.58;19.95;;;-5.10;1.00;;;;;;5059934;28;20210;-76
2022/12/17 21:17:18;;;;;;;46.22;19.00;;;-5.20;1.00;;;;;;5060164;28;20203;-76
2022/12/17 21:19:49;;;;;;;42.43;19.63;;;-5.20;1.00;;;;;;5061770;28;20314;-76
2022/12/17 21:22:19;;;;;;;38.83;20.30;;;-5.30;1.00;;;;;;5059905;28;20541;-76
2022/12/17 21:25:07;;;;;;;42.88;20.30;;;-5.40;1.00;;;;;;5063527;28;20171;-76
2022/12/17 21:27:33;;;;;;;36.45;18.35;;;-5.50;1.00;;;;;;5057665;28;20240;-76
2022/12/17 21:30:00;;;;;;;41.08;19.38;;;-5.50;1.00;;;;;;5067477;28;20187;-83
2022/12/17 21:32:37;;;;;;;42.83;19.02;;;-5.70;1.00;;;;;;5071303;28;20179;-76
2022/12/17 21:35:07;;;;;;;41.95;20.67;;;-5.70;1.00;;;;;;5056783;28;20513;-76
2022/12/17 21:37:43;;;;;;;48.35;21.50;;;-5.80;1.00;;;;;;5046248;28;20655;-76
2022/12/17 21:40:10;;;;;;;44.58;20.40;;;-5.90;1.00;;;;;;5070331;28;20206;-76
2022/12/17 21:43:01;;;;;;;42.40;18.73;;;-5.90;1.00;;;;;;5066478;28;20254;-76
2022/12/17 21:45:34;;;;;;;38.70;19.27;;;-6.00;1.00;;;;;;5062475;28;20191;-76
2022/12/17 21:48:09;;;;;;;43.13;20.83;;;-6.00;1.00;;;;;;5063524;28;20186;-76
2022/12/17 21:50:42;;;;;;;44.05;20.05;;;-5.90;1.00;;;;;;5051440;28;20186;-76
2022/12/17 21:53:13;;;;;;;42.05;20.77;;;-6.00;1.00;;;;;;5063444;28;20190;-76
2022/12/17 21:55:39;;;;;;;42.58;20.27;;;-6.00;1.00;;;;;;5064909;28;20190;-76
2022/12/17 21:58:05;;;;;;;42.53;20.47;;;-6.00;1.00;;;;;;5069923;28;20262;-76
2022/12/17 22:00:37;;;;;;;40.07;19.93;;;-6.00;1.00;;;;;;5059459;28;20449;-87
2022/12/17 22:03:14;;;;;;;47.33;21.25;;;-6.00;1.00;;;;;;5060136;28;20420;-87
2022/12/17 22:09:37;;;;;;;43.55;19.73;;;-6.00;1.00;;;;;;5076702;28;20273;-88
2022/12/17 22:15:38;;;;;;;49.08;22.17;;;-6.00;1.00;;;;;;5053925;28;20253;-80
2022/12/17 22:18:20;;;;;;;45.30;20.42;;;-5.90;1.00;;;;;;5052496;28;20202;-88
2022/12/17 22:21:37;;;;;;;40.47;20.23;;;-6.00;1.00;;;;;;5062662;28;20210;-87
2022/12/17 22:24:23;;;;;;;44.38;20.65;;;-6.00;1.00;;;;;;5047824;28;20632;-88
2022/12/17 22:40:02;;;;;;;37.75;19.08;;;-6.20;1.00;;;;;;5054250;28;20756;-87
2022/12/17 22:45:49;;;;;;;42.83;20.05;;;-6.30;1.00;;;;;;5054592;28;20569;-87
2022/12/17 22:48:15;;;;;;;42.07;19.70;;;-6.40;1.00;;;;;;5070932;28;20174;-88
2022/12/17 22:51:25;;;;;;;44.58;21.20;;;-6.40;1.00;;;;;;5067852;28;20182;-88
2022/12/17 22:54:37;;;;;;;36.75;18.83;;;-6.50;1.00;;;;;;5050586;28;20175;-88
2022/12/17 22:57:37;;;;;;;40.33;19.88;;;-6.60;1.00;;;;;;5069087;28;20176;-88
2022/12/17 23:06:46;;;;;;;38.05;19.30;;;-6.80;1.00;;;;;;5062660;28;20193;-88
2022/12/17 23:09:37;;;;;;;37.30;18.30;;;-6.90;1.00;;;;;;5062260;28;20183;-88
2022/12/17 23:16:13;;;;;;;35.85;19.13;;;-7.00;1.00;;;;;;5035760;28;20230;-88
2022/12/17 23:18:50;;;;;;;37.10;20.10;;;-7.00;1.00;;;;;;5057114;28;20206;-76
2022/12/17 23:21:24;;;;;;;35.85;20.00;;;-7.10;1.00;;;;;;5061918;28;20199;-75
2022/12/17 23:24:08;;;;;;;34.03;18.77;;;-7.10;1.00;;;;;;5061960;28;20634;-76
2022/12/17 23:26:38;;;;;;;37.97;18.55;;;-7.10;1.00;;;;;;5045489;28;20206;-76
2022/12/17 23:29:13;;;;;;;38.17;19.45;;;-7.20;1.00;;;;;;5068452;28;20168;-76
2022/12/17 23:31:50;;;;;;;37.25;19.30;;;-7.20;1.00;;;;;;5066342;28;20553;-76
2022/12/17 23:34:26;;;;;;;35.40;18.02;;;-7.20;1.00;;;;;;5059590;28;20182;-76
2022/12/17 23:36:52;;;;;;;40.42;19.00;;;-7.30;1.00;;;;;;5062723;28;20171;-76
2022/12/17 23:39:17;;;;;;;35.25;18.25;;;-7.30;1.00;;;;;;5060468;28;20625;-75
2022/12/17 23:41:43;;;;;;;32.90;18.13;;;-7.30;1.00;;;;;;5062333;28;20195;-76
2022/12/17 23:44:20;;;;;;;36.90;17.50;;;-7.40;1.00;;;;;;5054958;28;20658;-76
2022/12/17 23:46:50;;;;;;;34.67;18.70;;;-7.40;1.00;;;;;;5055505;28;20195;-76
2022/12/17 23:49:26;;;;;;;35.13;18.95;;;-7.50;1.00;;;;;;5048978;28;20234;-76
2022/12/17 23:51:56;;;;;;;36.15;19.08;;;-7.50;1.00;;;;;;5034596;28;20584;-76
2022/12/17 23:54:25;;;;;;;33.97;18.52;;;-7.50;1.00;;;;;;5034229;28;20513;-76
2022/12/17 23:56:56;;;;;;;32.03;18.67;;;-7.50;1.00;;;;;;5043897;28;20232;-76
2022/12/17 23:59:32;;;;;;;33.53;19.27;;;-7.60;1.00;;;;;;5054177;28;20168;-76
